createdAt,value
2022-08-07T00:02:35.640Z,0.85
2022-08-07T00:04:15.397Z,0.95
2022-08-07T00:06:51.828Z,0.70
2022-08-07T00:09:22.810Z,0.82
2022-08-07T00:11:55.895Z,0.83
2022-08-07T00:14:30.296Z,0.80
2022-08-07T00:17:02.539Z,0.82
2022-08-07T00:20:00.447Z,0.70
2022-08-07T00:22:24.569Z,0.70
2022-08-07T00:25:15.837Z,0.83
2022-08-07T00:27:52.307Z,0.77
2022-08-07T00:30:27.720Z,0.90
2022-08-07T00:33:00.507Z,0.82
2022-08-07T00:35:30.021Z,0.80
2022-08-07T00:37:59.332Z,0.80
2022-08-07T00:40:39.459Z,0.75
2022-08-07T00:43:59.753Z,1.00
2022-08-07T00:45:58.287Z,0.68
2022-08-07T00:48:31.953Z,0.80
2022-08-07T00:51:00.994Z,0.70
2022-08-07T00:53:38.925Z,0.80
2022-08-07T00:56:18.913Z,0.90
2022-08-07T01:01:41.554Z,1.00
2022-08-07T01:04:12.175Z,0.80
2022-08-07T01:06:52.418Z,0.80
2022-08-07T01:09:51.193Z,0.80
2022-08-07T01:12:28.991Z,0.93
2022-08-07T01:15:01.757Z,0.70
2022-08-07T01:17:32.395Z,0.83
2022-08-07T01:20:10.598Z,0.85
2022-08-07T01:22:57.811Z,0.98
2022-08-07T01:25:53.997Z,0.77
2022-08-07T01:28:22.367Z,0.82
2022-08-07T01:30:53.993Z,0.90
2022-08-07T01:33:24.548Z,1.25
2022-08-07T01:36:06.377Z,0.90
2022-08-07T01:38:37.351Z,0.70
2022-08-07T01:41:13.840Z,1.17
2022-08-07T01:43:54.937Z,0.70
2022-08-07T01:46:22.407Z,1.10
2022-08-07T01:48:51.027Z,1.30
2022-08-07T01:52:03.296Z,0.90
2022-08-07T01:54:32.549Z,1.10
2022-08-07T01:57:24.127Z,1.10
2022-08-07T02:00:02.341Z,1.10
2022-08-07T02:03:22.097Z,0.90
2022-08-07T02:06:01.249Z,1.00
2022-08-07T02:08:40.435Z,1.08
2022-08-07T02:11:10.968Z,0.90
2022-08-07T02:14:07.325Z,1.08
2022-08-07T02:16:38.466Z,1.10
2022-08-07T02:22:03.755Z,1.10
2022-08-07T02:24:35.390Z,1.20
2022-08-07T02:27:03.989Z,1.40
2022-08-07T02:29:34.372Z,1.30
2022-08-07T02:32:05.706Z,1.10
2022-08-07T02:34:39.034Z,1.50
2022-08-07T02:37:18.822Z,1.40
2022-08-07T02:40:01.688Z,1.73
2022-08-07T02:42:35.174Z,1.42
2022-08-07T02:45:11.819Z,1.63
2022-08-07T02:47:54.368Z,1.42
2022-08-07T02:50:21.962Z,1.27
2022-08-07T02:52:54.987Z,1.35
2022-08-07T02:56:04.105Z,1.10
2022-08-07T02:58:27.165Z,1.30
2022-08-07T03:00:59.430Z,1.38
2022-08-07T03:03:42.256Z,1.60
2022-08-07T03:06:25.981Z,1.38
2022-08-07T03:09:05.790Z,1.52
2022-08-07T03:11:38.974Z,1.55
2022-08-07T03:14:22.581Z,1.30
2022-08-07T03:16:50.769Z,1.60
2022-08-07T03:19:20.905Z,1.20
2022-08-07T03:21:50.774Z,1.52
2022-08-07T03:24:27.403Z,1.60
2022-08-07T03:27:00.931Z,1.35
2022-08-07T03:29:49.564Z,1.40
2022-08-07T03:32:29.630Z,1.42
2022-08-07T03:35:17.781Z,1.58
2022-08-07T03:37:55.036Z,1.80
2022-08-07T03:40:35.961Z,1.67
2022-08-07T03:43:13.578Z,1.33
2022-08-07T03:45:47.600Z,1.55
2022-08-07T03:48:18.538Z,1.73
2022-08-07T03:50:55.853Z,1.55
2022-08-07T03:54:05.741Z,1.88
2022-08-07T03:56:33.545Z,2.10
2022-08-07T03:59:12.955Z,1.70
2022-08-07T04:01:46.303Z,1.50
2022-08-07T04:04:18.340Z,1.95
2022-08-07T04:06:50.813Z,2.00
2022-08-07T04:09:23.413Z,1.50
2022-08-07T04:12:21.288Z,1.83
2022-08-07T04:14:46.124Z,1.77
2022-08-07T04:17:20.456Z,1.70
2022-08-07T04:19:54.219Z,1.50
2022-08-07T04:22:29.156Z,1.80
2022-08-07T04:25:00.967Z,1.92
2022-08-07T04:27:36.293Z,1.80
2022-08-07T04:30:36.061Z,1.70
2022-08-07T04:33:09.336Z,1.80
2022-08-07T04:35:39.614Z,1.83
2022-08-07T04:38:15.481Z,1.88
2022-08-07T04:40:52.806Z,1.95
2022-08-07T04:44:12.215Z,2.05
2022-08-07T04:47:08.274Z,1.70
2022-08-07T04:50:03.662Z,1.67
2022-08-07T04:52:46.945Z,2.17
2022-08-07T04:58:11.331Z,1.75
2022-08-07T04:58:47.282Z,1.70
2022-08-07T05:01:39.822Z,1.88
2022-08-07T05:04:12.460Z,2.10
2022-08-07T05:06:54.979Z,1.70
2022-08-07T05:09:45.823Z,1.85
2022-08-07T05:12:30.616Z,1.83
2022-08-07T05:15:21.642Z,1.75
2022-08-07T05:18:00.882Z,2.33
2022-08-07T05:20:35.032Z,2.15
2022-08-07T05:23:15.278Z,2.30
2022-08-07T05:26:11.238Z,2.33
2022-08-07T05:28:34.547Z,2.38
2022-08-07T05:31:03.798Z,2.50
2022-08-07T05:33:35.536Z,2.10
2022-08-07T05:36:07.534Z,2.20
2022-08-07T05:39:00.606Z,1.90
2022-08-07T05:42:00.198Z,2.20
2022-08-07T05:44:29.554Z,1.80
2022-08-07T05:47:01.090Z,2.28
2022-08-07T05:49:40.669Z,1.80
2022-08-07T05:52:11.470Z,1.83
2022-08-07T05:54:44.587Z,1.90
2022-08-07T05:57:23.716Z,2.13
2022-08-07T05:59:57.866Z,2.05
2022-08-07T06:02:31.276Z,2.42
2022-08-07T06:05:10.721Z,2.40
2022-08-07T06:08:12.961Z,2.50
2022-08-07T06:10:29.359Z,2.63
2022-08-07T06:12:56.901Z,2.50
2022-08-07T06:15:39.432Z,2.83
2022-08-07T06:18:14.293Z,2.78
2022-08-07T06:20:50.546Z,2.97
2022-08-07T06:24:38.060Z,2.20
2022-08-07T06:26:21.856Z,2.40
2022-08-07T06:28:57.975Z,2.80
2022-08-07T06:31:46.984Z,2.53
2022-08-07T06:34:16.488Z,2.60
2022-08-07T06:36:52.041Z,2.50
2022-08-07T06:40:16.174Z,2.70
2022-08-07T06:42:19.486Z,1.98
2022-08-07T06:45:15.668Z,1.75
2022-08-07T06:47:58.719Z,1.58
2022-08-07T06:50:47.738Z,1.63
2022-08-07T06:55:28.082Z,1.52
2022-08-07T06:56:15.544Z,1.92
2022-08-07T07:00:14.047Z,1.35
2022-08-07T07:01:43.735Z,1.50
2022-08-07T07:04:28.107Z,1.70
2022-08-07T07:07:02.555Z,1.77
2022-08-07T07:09:47.085Z,1.88
2022-08-07T07:12:48.428Z,1.70
2022-08-07T07:15:23.888Z,1.88
2022-08-07T07:18:00.309Z,1.83
2022-08-07T07:20:39.594Z,1.90
2022-08-07T07:24:06.105Z,2.05
2022-08-07T07:26:34.514Z,2.13
2022-08-07T07:29:39.553Z,2.55
2022-08-07T07:31:46.996Z,1.70
2022-08-07T07:34:22.247Z,2.13
2022-08-07T07:37:05.516Z,2.28
2022-08-07T07:39:52.376Z,2.70
2022-08-07T07:42:32.499Z,2.75
2022-08-07T07:45:06.189Z,2.90
2022-08-07T07:47:42.863Z,3.13
2022-08-07T07:50:35.101Z,3.47
2022-08-07T07:53:20.324Z,3.20
2022-08-07T07:56:00.530Z,2.65
2022-08-07T07:58:37.012Z,2.20
2022-08-07T08:02:03.205Z,2.35
2022-08-07T08:04:06.090Z,2.15
2022-08-07T08:06:40.748Z,2.95
2022-08-07T08:09:29.154Z,3.40
2022-08-07T08:12:02.838Z,2.80
2022-08-07T08:14:36.374Z,3.03
2022-08-07T08:17:56.010Z,2.97
2022-08-07T08:20:17.220Z,2.70
2022-08-07T08:23:09.972Z,2.70
2022-08-07T08:25:58.183Z,1.97
2022-08-07T08:28:59.695Z,2.47
2022-08-07T08:32:18.132Z,2.78
2022-08-07T08:34:32.937Z,2.40
2022-08-07T08:37:03.480Z,2.30
2022-08-07T08:39:39.738Z,2.63
2022-08-07T08:42:27.466Z,2.58
2022-08-07T08:45:04.317Z,2.70
2022-08-07T08:47:47.593Z,2.28
2022-08-07T08:50:40.093Z,2.30
2022-08-07T08:53:26.451Z,2.37
2022-08-07T08:56:02.435Z,2.08
2022-08-07T08:58:39.740Z,2.70
2022-08-07T09:01:18.605Z,2.67
2022-08-07T09:03:55.646Z,2.30
2022-08-07T09:06:37.451Z,2.50
2022-08-07T09:09:43.639Z,2.28
2022-08-07T09:12:34.626Z,2.25
2022-08-07T09:16:24.390Z,2.00
2022-08-07T09:18:23.846Z,2.40
2022-08-07T09:21:00.778Z,1.90
2022-08-07T09:24:31.901Z,2.13
2022-08-07T09:26:57.005Z,2.30
2022-08-07T09:30:07.453Z,2.70
2022-08-07T09:32:57.746Z,2.50
2022-08-07T09:36:01.239Z,2.10
2022-08-07T09:39:17.985Z,2.40
2022-08-07T09:42:32.943Z,2.65
2022-08-07T09:47:24.755Z,2.60
2022-08-07T09:48:50.103Z,2.47
2022-08-07T09:52:15.876Z,2.03
2022-08-07T09:54:40.410Z,1.60
2022-08-07T09:57:19.107Z,2.10
2022-08-07T10:00:18.847Z,2.10
2022-08-07T10:04:05.372Z,2.08
2022-08-07T10:06:24.403Z,1.97
2022-08-07T10:09:16.933Z,2.08
2022-08-07T10:12:04.172Z,2.30
2022-08-07T10:15:08.142Z,2.13
2022-08-07T10:18:01.135Z,2.40
2022-08-07T10:21:50.614Z,2.33
2022-08-07T10:24:18.396Z,2.50
2022-08-07T10:27:15.611Z,2.65
2022-08-07T10:30:34.782Z,2.53
2022-08-07T10:33:19.022Z,2.28
2022-08-07T10:36:17.805Z,2.17
2022-08-07T10:39:08.845Z,2.35
2022-08-07T10:42:00.229Z,2.25
2022-08-07T10:45:01.372Z,2.67
2022-08-07T10:47:55.860Z,2.30
2022-08-07T10:50:35.449Z,2.10
2022-08-07T10:53:27.635Z,2.00
2022-08-07T10:56:40.947Z,2.42
2022-08-07T10:59:15.827Z,2.30
2022-08-07T11:02:12.410Z,2.47
2022-08-07T11:05:10.559Z,2.40
2022-08-07T11:08:02.619Z,2.10
2022-08-07T11:10:50.007Z,2.30
2022-08-07T11:14:44.867Z,2.10
2022-08-07T11:16:36.333Z,2.13
2022-08-07T11:19:21.542Z,2.10
2022-08-07T11:22:26.477Z,2.42
2022-08-07T11:25:25.641Z,2.85
2022-08-07T11:28:09.694Z,2.50
2022-08-07T11:31:22.855Z,2.22
2022-08-07T11:34:10.857Z,1.97
2022-08-07T11:36:53.850Z,1.80
2022-08-07T11:40:00.156Z,2.40
2022-08-07T11:42:58.306Z,2.15
2022-08-07T11:45:53.173Z,1.95
2022-08-07T11:48:44.182Z,2.40
2022-08-07T11:51:46.606Z,2.60
2022-08-07T11:54:38.279Z,2.35
2022-08-07T11:57:59.386Z,2.30
2022-08-07T12:01:22.124Z,2.00
2022-08-07T12:07:17.264Z,2.80
2022-08-07T12:10:08.439Z,2.60
2022-08-07T12:12:45.938Z,2.78
2022-08-07T12:15:35.837Z,2.80
2022-08-07T12:18:35.934Z,2.77
2022-08-07T12:22:36.074Z,2.60
2022-08-07T12:25:10.460Z,2.80
2022-08-07T12:28:09.794Z,2.58
2022-08-07T12:30:41.254Z,2.33
2022-08-07T12:33:28.452Z,1.90
2022-08-07T12:36:02.647Z,1.77
2022-08-07T12:38:42.469Z,2.47
2022-08-07T12:41:12.684Z,2.78
2022-08-07T12:44:03.617Z,2.15
2022-08-07T12:50:04.634Z,2.03
2022-08-07T12:53:18.574Z,2.47
2022-08-07T12:56:09.255Z,2.05
2022-08-07T12:58:40.119Z,2.30
2022-08-07T13:01:32.118Z,2.57
2022-08-07T13:04:36.988Z,2.55
2022-08-07T13:08:12.479Z,2.30
2022-08-07T13:11:06.100Z,2.25
2022-08-07T13:13:48.337Z,2.40
2022-08-07T13:16:40.172Z,2.17
2022-08-07T13:19:50.775Z,2.17
2022-08-07T13:22:33.568Z,2.35
2022-08-07T13:25:06.791Z,2.42
2022-08-07T13:28:11.559Z,2.35
2022-08-07T13:30:41.352Z,2.10
2022-08-07T13:34:30.771Z,2.25
2022-08-07T13:36:30.330Z,2.60
2022-08-07T13:39:49.314Z,2.50
2022-08-07T13:42:03.442Z,2.60
2022-08-07T13:44:37.326Z,2.40
2022-08-07T13:47:09.509Z,2.45
2022-08-07T13:50:35.815Z,2.42
2022-08-07T13:52:39.624Z,2.40
2022-08-07T13:55:19.268Z,2.67
2022-08-07T13:58:27.622Z,2.63
2022-08-07T14:00:58.318Z,2.45
2022-08-07T14:03:29.557Z,2.45
2022-08-07T14:06:15.419Z,2.80
2022-08-07T14:08:55.144Z,2.47
2022-08-07T14:11:23.660Z,2.40
2022-08-07T14:13:58.734Z,2.25
2022-08-07T14:16:34.222Z,2.65
2022-08-07T14:22:34.692Z,3.13
2022-08-07T14:25:09.335Z,3.03
2022-08-07T14:28:10.688Z,3.50
2022-08-07T14:30:32.593Z,3.10
2022-08-07T14:33:04.589Z,2.60
2022-08-07T14:44:16.827Z,3.80
2022-08-07T14:46:51.835Z,3.35
2022-08-07T14:49:56.863Z,3.10
2022-08-07T14:52:27.753Z,3.43
2022-08-07T14:54:58.642Z,3.22
2022-08-07T14:57:55.150Z,3.50
2022-08-07T15:00:20.695Z,3.00
2022-08-07T15:03:00.014Z,2.60
2022-08-07T15:05:30.389Z,2.40
2022-08-07T15:11:14.961Z,2.60
2022-08-07T15:13:51.433Z,2.63
2022-08-07T15:16:33.921Z,2.67
2022-08-07T15:19:05.639Z,2.30
2022-08-07T15:25:14.460Z,2.55
2022-08-07T15:27:29.870Z,2.10
2022-08-07T15:30:14.603Z,2.03
2022-08-07T15:32:51.127Z,2.20
2022-08-07T15:36:00.613Z,1.80
2022-08-07T15:44:09.103Z,2.08
2022-08-07T15:46:51.901Z,2.23
2022-08-07T15:52:21.661Z,2.08
2022-08-07T15:55:02.812Z,2.65
2022-08-07T15:57:47.421Z,2.95
2022-08-07T16:00:31.335Z,2.33
2022-08-07T16:03:20.988Z,2.40
2022-08-07T16:05:50.903Z,2.00
2022-08-07T16:08:32.212Z,2.33
2022-08-07T16:11:26.903Z,2.33
2022-08-07T16:14:02.962Z,2.30
2022-08-07T16:17:00.647Z,1.73
2022-08-07T16:19:58.792Z,2.00
2022-08-07T16:22:30.125Z,2.10
2022-08-07T16:25:55.301Z,2.20
2022-08-07T16:30:07.033Z,1.90
2022-08-07T16:31:13.930Z,1.70
2022-08-07T16:34:09.898Z,2.20
2022-08-07T16:37:01.821Z,1.60
2022-08-07T16:39:52.805Z,2.08
2022-08-07T16:42:45.296Z,2.10
2022-08-07T16:46:33.694Z,2.22
2022-08-07T16:50:20.281Z,2.00
2022-08-07T16:52:35.340Z,1.80
2022-08-07T16:55:11.377Z,1.95
2022-08-07T16:58:04.291Z,1.83
2022-08-07T17:00:41.552Z,1.85
2022-08-07T17:03:17.229Z,2.10
2022-08-07T17:06:29.649Z,2.20
2022-08-07T17:10:05.472Z,1.88
2022-08-07T17:12:34.187Z,2.20
2022-08-07T17:15:20.072Z,2.25
2022-08-07T17:17:47.860Z,2.30
2022-08-07T17:20:33.003Z,2.03
2022-08-07T17:23:11.573Z,2.20
2022-08-07T17:26:22.655Z,2.33
2022-08-07T17:28:57.988Z,2.28
2022-08-07T17:31:44.085Z,2.10
2022-08-07T17:35:51.679Z,2.08
2022-08-07T17:38:32.254Z,2.15
2022-08-07T17:42:02.409Z,2.13
2022-08-07T17:44:33.499Z,2.05
2022-08-07T17:47:37.899Z,1.92
2022-08-07T17:50:22.438Z,2.10
2022-08-07T17:53:06.068Z,2.20
2022-08-07T17:56:09.298Z,1.90
2022-08-07T17:58:57.102Z,1.75
2022-08-07T18:01:29.132Z,2.20
2022-08-07T18:04:16.281Z,2.25
2022-08-07T18:07:19.319Z,2.25
2022-08-07T18:10:05.856Z,2.03
2022-08-07T18:12:50.871Z,2.30
2022-08-07T18:15:41.201Z,2.33
2022-08-07T18:19:02.387Z,2.25
2022-08-07T18:21:42.400Z,2.20
2022-08-07T18:24:07.596Z,2.07
2022-08-07T18:26:45.838Z,1.83
2022-08-07T18:30:04.354Z,2.45
2022-08-07T18:33:15.182Z,2.00
2022-08-07T18:36:14.100Z,2.30
2022-08-07T18:40:06.589Z,2.17
2022-08-07T18:42:28.544Z,2.50
2022-08-07T18:45:44.399Z,2.63
2022-08-07T18:48:04.241Z,2.42
2022-08-07T18:50:45.501Z,2.38
2022-08-07T18:53:41.074Z,2.97
2022-08-07T18:59:47.685Z,2.25
2022-08-07T19:02:42.700Z,2.55
2022-08-07T19:06:02.372Z,2.50
2022-08-07T19:08:30.923Z,2.17
2022-08-07T19:11:36.082Z,2.20
2022-08-07T19:14:22.851Z,2.60
2022-08-07T19:17:05.809Z,2.88
2022-08-07T19:19:55.731Z,2.60
2022-08-07T19:22:40.380Z,2.40
2022-08-07T19:28:57.234Z,2.15
2022-08-07T19:31:43.656Z,2.40
2022-08-07T19:34:02.947Z,2.47
2022-08-07T19:36:38.627Z,2.33
2022-08-07T19:39:10.962Z,1.90
2022-08-07T19:42:08.345Z,2.55
2022-08-07T19:44:41.112Z,2.38
2022-08-07T19:47:14.605Z,2.08
2022-08-07T19:49:57.935Z,2.47
2022-08-07T19:52:30.972Z,2.42
2022-08-07T19:54:59.927Z,2.30
2022-08-07T19:58:01.572Z,2.25
2022-08-07T20:00:28.318Z,2.80
2022-08-07T20:03:03.221Z,2.47
2022-08-07T20:06:00.094Z,2.80
2022-08-07T20:08:24.257Z,2.60
2022-08-07T20:11:09.896Z,2.63
2022-08-07T20:13:48.371Z,2.60
2022-08-07T20:16:35.944Z,2.87
2022-08-07T20:19:10.054Z,2.42
2022-08-07T20:21:46.515Z,2.58
2022-08-07T20:24:24.202Z,2.53
2022-08-07T20:26:59.246Z,2.70
2022-08-07T20:29:49.072Z,2.70
2022-08-07T20:32:22.853Z,3.00
2022-08-07T20:34:57.405Z,3.40
2022-08-07T20:37:55.587Z,2.70
2022-08-07T20:40:31.534Z,2.53
2022-08-07T20:43:02.892Z,2.53
2022-08-07T20:46:24.686Z,2.88
2022-08-07T20:48:25.864Z,2.63
2022-08-07T20:51:00.733Z,2.60
2022-08-07T20:54:03.285Z,2.45
2022-08-07T20:56:25.747Z,2.23
2022-08-07T20:58:58.494Z,2.47
2022-08-07T21:01:36.611Z,2.60
2022-08-07T21:04:22.533Z,2.17
2022-08-07T21:06:55.313Z,2.47
2022-08-07T21:09:52.066Z,2.27
2022-08-07T21:12:28.465Z,2.35
2022-08-07T21:14:58.526Z,2.03
2022-08-07T21:18:09.138Z,2.40
2022-08-07T21:20:26.644Z,2.42
2022-08-07T21:22:59.103Z,2.40
2022-08-07T21:25:42.650Z,2.28
2022-08-07T21:28:18.861Z,2.20
2022-08-07T21:30:52.299Z,1.92
2022-08-07T21:33:41.497Z,2.50
2022-08-07T21:36:33.596Z,2.60
2022-08-07T21:39:45.525Z,2.67
2022-08-07T21:42:48.858Z,2.92
2022-08-07T21:46:10.812Z,2.90
2022-08-07T21:48:28.614Z,2.20
2022-08-07T21:51:25.369Z,2.90
2022-08-07T21:54:01.146Z,2.58
2022-08-07T21:56:59.773Z,2.60
2022-08-07T22:00:05.062Z,2.88
2022-08-07T22:02:44.849Z,2.20
2022-08-07T22:05:22.021Z,2.13
2022-08-07T22:08:10.423Z,2.35
2022-08-07T22:10:42.192Z,2.40
2022-08-07T22:13:14.343Z,2.72
2022-08-07T22:16:45.111Z,2.10
2022-08-07T22:18:47.162Z,1.47
2022-08-07T22:22:05.386Z,1.88
2022-08-07T22:24:55.277Z,1.60
2022-08-07T22:28:07.205Z,1.92
2022-08-07T22:30:28.307Z,1.63
2022-08-07T22:33:07.100Z,1.27
2022-08-07T22:35:51.139Z,1.40
2022-08-07T22:38:33.977Z,1.83
2022-08-07T22:41:10.899Z,2.42
2022-08-07T22:43:47.450Z,2.50
2022-08-07T22:46:55.994Z,2.53
2022-08-07T22:49:34.017Z,2.65
2022-08-07T22:52:37.758Z,2.42
2022-08-07T22:55:29.988Z,1.98
2022-08-07T22:58:28.185Z,2.08
2022-08-07T23:01:21.177Z,2.00
2022-08-07T23:04:16.330Z,1.90
2022-08-07T23:07:25.853Z,1.85
2022-08-07T23:10:37.428Z,1.67
2022-08-07T23:16:54.926Z,1.20
2022-08-07T23:19:51.653Z,1.50
2022-08-07T23:22:41.177Z,1.30
2022-08-07T23:25:45.842Z,1.50
2022-08-07T23:28:36.539Z,1.58
2022-08-07T23:34:21.412Z,1.60
2022-08-07T23:34:39.942Z,1.70
2022-08-07T23:37:29.807Z,1.45
2022-08-07T23:40:17.997Z,1.20
2022-08-07T23:43:23.675Z,1.73
2022-08-07T23:46:23.526Z,1.40
2022-08-07T23:49:16.975Z,1.27
2022-08-07T23:53:08.845Z,1.35
2022-08-07T23:54:58.028Z,1.33
2022-08-07T23:57:37.027Z,1.27
